<?xml version="1.0" encoding="UTF-8" standalone="no" ?>
<gpx xmlns="http://www.topografix.com/GPX/1/1" xmlns:xsi="http://www.w3.org/2001/XMLSchema-instance" xsi:schemaLocation="http://www.topografix.com/GPX/1/1 http://www.topografix.com/GPX/1/1/gpx.xsd" version="1.1" creator="VisuGPX - https://www.visugpx.com">
  <metadata>
    <name>De Meillerie à Salvigny</name>
    <desc><![CDATA[Randonnée en Haute-Savoie]]></desc>
  </metadata>
  <trk>
    <name><![CDATA[ACTIVE LOG: 27 JUL 2015 11:24]]></name>
    <trkseg>
      <trkpt lat="46.31925" lon="6.78028">
        <ele>1581.99</ele>
        <time>2015-07-27T09:24:50Z</time>
      </trkpt>
      <trkpt lat="46.31921" lon="6.78035">
        <ele>1580.06</ele>
        <time>2015-07-27T09:25:55Z</time>
      </trkpt>
      <trkpt lat="46.31906" lon="6.7808">
        <ele>1572.85</ele>
        <time>2015-07-27T09:27:00Z</time>
      </trkpt>
      <trkpt lat="46.31852" lon="6.78123">
        <ele>1555.55</ele>
        <time>2015-07-27T09:28:05Z</time>
      </trkpt>
      <trkpt lat="46.31804" lon="6.78164">
        <ele>1541.13</ele>
        <time>2015-07-27T09:29:10Z</time>
      </trkpt>
      <trkpt lat="46.31771" lon="6.7822">
        <ele>1525.75</ele>
        <time>2015-07-27T09:30:15Z</time>
      </trkpt>
      <trkpt lat="46.3176" lon="6.78277">
        <ele>1511.33</ele>
        <time>2015-07-27T09:31:20Z</time>
      </trkpt>
      <trkpt lat="46.31745" lon="6.78337">
        <ele>1498.83</ele>
        <time>2015-07-27T09:32:25Z</time>
      </trkpt>
      <trkpt lat="46.31714" lon="6.78366">
        <ele>1494.03</ele>
        <time>2015-07-27T09:33:30Z</time>
      </trkpt>
      <trkpt lat="46.31663" lon="6.78411">
        <ele>1482.01</ele>
        <time>2015-07-27T09:34:35Z</time>
      </trkpt>
      <trkpt lat="46.31718" lon="6.78464">
        <ele>1472.88</ele>
        <time>2015-07-27T09:35:40Z</time>
      </trkpt>
      <trkpt lat="46.31741" lon="6.78557">
        <ele>1461.82</ele>
        <time>2015-07-27T09:36:45Z</time>
      </trkpt>
      <trkpt lat="46.31735" lon="6.7857">
        <ele>1460.38</ele>
        <time>2015-07-27T09:37:50Z</time>
      </trkpt>
      <trkpt lat="46.31696" lon="6.78524">
        <ele>1453.65</ele>
        <time>2015-07-27T09:38:55Z</time>
      </trkpt>
      <trkpt lat="46.31671" lon="6.78551">
        <ele>1438.27</ele>
        <time>2015-07-27T09:40:00Z</time>
      </trkpt>
      <trkpt lat="46.31685" lon="6.78576">
        <ele>1432.02</ele>
        <time>2015-07-27T09:41:05Z</time>
      </trkpt>
      <trkpt lat="46.31646" lon="6.78643">
        <ele>1415.68</ele>
        <time>2015-07-27T09:42:10Z</time>
      </trkpt>
      <trkpt lat="46.31681" lon="6.78701">
        <ele>1400.78</ele>
        <time>2015-07-27T09:43:15Z</time>
      </trkpt>
      <trkpt lat="46.31658" lon="6.78752">
        <ele>1388.76</ele>
        <time>2015-07-27T09:44:20Z</time>
      </trkpt>
      <trkpt lat="46.31629" lon="6.78729">
        <ele>1379.63</ele>
        <time>2015-07-27T09:45:25Z</time>
      </trkpt>
      <trkpt lat="46.31588" lon="6.78697">
        <ele>1364.25</ele>
        <time>2015-07-27T09:46:30Z</time>
      </trkpt>
      <trkpt lat="46.31543" lon="6.78667">
        <ele>1351.75</ele>
        <time>2015-07-27T09:47:35Z</time>
      </trkpt>
      <trkpt lat="46.31495" lon="6.78638">
        <ele>1339.25</ele>
        <time>2015-07-27T09:48:40Z</time>
      </trkpt>
      <trkpt lat="46.31438" lon="6.78631">
        <ele>1326.28</ele>
        <time>2015-07-27T09:49:45Z</time>
      </trkpt>
      <trkpt lat="46.31403" lon="6.78609">
        <ele>1318.59</ele>
        <time>2015-07-27T09:50:50Z</time>
      </trkpt>
      <trkpt lat="46.31337" lon="6.78603">
        <ele>1302.72</ele>
        <time>2015-07-27T09:51:55Z</time>
      </trkpt>
      <trkpt lat="46.31282" lon="6.7861">
        <ele>1292.63</ele>
        <time>2015-07-27T09:53:00Z</time>
      </trkpt>
      <trkpt lat="46.31291" lon="6.78597">
        <ele>1293.11</ele>
        <time>2015-07-27T09:54:05Z</time>
      </trkpt>
      <trkpt lat="46.31289" lon="6.78594">
        <ele>1293.11</ele>
        <time>2015-07-27T09:55:10Z</time>
      </trkpt>
      <trkpt lat="46.31238" lon="6.7859">
        <ele>1283.98</ele>
        <time>2015-07-27T09:56:15Z</time>
      </trkpt>
      <trkpt lat="46.3118" lon="6.78572">
        <ele>1271.48</ele>
        <time>2015-07-27T09:57:20Z</time>
      </trkpt>
      <trkpt lat="46.31123" lon="6.78584">
        <ele>1257.06</ele>
        <time>2015-07-27T09:58:25Z</time>
      </trkpt>
      <trkpt lat="46.31043" lon="6.78594">
        <ele>1242.64</ele>
        <time>2015-07-27T09:59:30Z</time>
      </trkpt>
      <trkpt lat="46.30999" lon="6.78595">
        <ele>1236.87</ele>
        <time>2015-07-27T10:00:35Z</time>
      </trkpt>
      <trkpt lat="46.31" lon="6.78552">
        <ele>1236.87</ele>
        <time>2015-07-27T10:01:40Z</time>
      </trkpt>
      <trkpt lat="46.30989" lon="6.78503">
        <ele>1233.51</ele>
        <time>2015-07-27T10:02:45Z</time>
      </trkpt>
      <trkpt lat="46.30955" lon="6.78554">
        <ele>1227.26</ele>
        <time>2015-07-27T10:03:50Z</time>
      </trkpt>
      <trkpt lat="46.30913" lon="6.78604">
        <ele>1216.21</ele>
        <time>2015-07-27T10:04:55Z</time>
      </trkpt>
      <trkpt lat="46.30889" lon="6.78644">
        <ele>1206.59</ele>
        <time>2015-07-27T10:06:00Z</time>
      </trkpt>
      <trkpt lat="46.30863" lon="6.78669">
        <ele>1200.34</ele>
        <time>2015-07-27T10:07:05Z</time>
      </trkpt>
      <trkpt lat="46.30812" lon="6.78719">
        <ele>1190.73</ele>
        <time>2015-07-27T10:08:10Z</time>
      </trkpt>
      <trkpt lat="46.30771" lon="6.78774">
        <ele>1184</ele>
        <time>2015-07-27T10:09:15Z</time>
      </trkpt>
      <trkpt lat="46.30714" lon="6.78792">
        <ele>1178.71</ele>
        <time>2015-07-27T10:10:20Z</time>
      </trkpt>
      <trkpt lat="46.30651" lon="6.78819">
        <ele>1173.91</ele>
        <time>2015-07-27T10:11:25Z</time>
      </trkpt>
      <trkpt lat="46.30598" lon="6.78862">
        <ele>1164.29</ele>
        <time>2015-07-27T10:12:30Z</time>
      </trkpt>
      <trkpt lat="46.30535" lon="6.78903">
        <ele>1158.53</ele>
        <time>2015-07-27T10:13:35Z</time>
      </trkpt>
      <trkpt lat="46.30455" lon="6.78912">
        <ele>1152.76</ele>
        <time>2015-07-27T10:14:40Z</time>
      </trkpt>
      <trkpt lat="46.3041" lon="6.78931">
        <ele>1146.99</ele>
        <time>2015-07-27T10:15:45Z</time>
      </trkpt>
      <trkpt lat="46.30368" lon="6.78955">
        <ele>1140.74</ele>
        <time>2015-07-27T10:16:50Z</time>
      </trkpt>
      <trkpt lat="46.30312" lon="6.78952">
        <ele>1133.53</ele>
        <time>2015-07-27T10:17:55Z</time>
      </trkpt>
      <trkpt lat="46.30244" lon="6.78958">
        <ele>1124.88</ele>
        <time>2015-07-27T10:19:00Z</time>
      </trkpt>
      <trkpt lat="46.30172" lon="6.78963">
        <ele>1114.31</ele>
        <time>2015-07-27T10:20:05Z</time>
      </trkpt>
      <trkpt lat="46.30111" lon="6.78995">
        <ele>1102.77</ele>
        <time>2015-07-27T10:21:10Z</time>
      </trkpt>
      <trkpt lat="46.30013" lon="6.79023">
        <ele>1094.6</ele>
        <time>2015-07-27T10:22:15Z</time>
      </trkpt>
      <trkpt lat="46.29947" lon="6.78995">
        <ele>1084.5</ele>
        <time>2015-07-27T10:23:20Z</time>
      </trkpt>
      <trkpt lat="46.29868" lon="6.78977">
        <ele>1075.85</ele>
        <time>2015-07-27T10:24:25Z</time>
      </trkpt>
      <trkpt lat="46.29852" lon="6.78964">
        <ele>1072.97</ele>
        <time>2015-07-27T10:25:30Z</time>
      </trkpt>
      <trkpt lat="46.29818" lon="6.78959">
        <ele>1070.08</ele>
        <time>2015-07-27T10:26:35Z</time>
      </trkpt>
      <trkpt lat="46.29749" lon="6.78974">
        <ele>1059.99</ele>
        <time>2015-07-27T10:27:40Z</time>
      </trkpt>
      <trkpt lat="46.29692" lon="6.78912">
        <ele>1052.78</ele>
        <time>2015-07-27T10:28:45Z</time>
      </trkpt>
      <trkpt lat="46.29685" lon="6.78911">
        <ele>1051.82</ele>
        <time>2015-07-27T10:29:50Z</time>
      </trkpt>
      <trkpt lat="46.29636" lon="6.78904">
        <ele>1046.05</ele>
        <time>2015-07-27T10:30:55Z</time>
      </trkpt>
      <trkpt lat="46.29568" lon="6.78862">
        <ele>1039.8</ele>
        <time>2015-07-27T10:32:00Z</time>
      </trkpt>
      <trkpt lat="46.29533" lon="6.78839">
        <ele>1035.96</ele>
        <time>2015-07-27T10:33:05Z</time>
      </trkpt>
      <trkpt lat="46.2953" lon="6.78897">
        <ele>1035.48</ele>
        <time>2015-07-27T10:34:10Z</time>
      </trkpt>
      <trkpt lat="46.2952" lon="6.78991">
        <ele>1036.44</ele>
        <time>2015-07-27T10:35:15Z</time>
      </trkpt>
      <trkpt lat="46.29504" lon="6.79084">
        <ele>1035</ele>
        <time>2015-07-27T10:36:20Z</time>
      </trkpt>
      <trkpt lat="46.29503" lon="6.7902">
        <ele>1035.96</ele>
        <time>2015-07-27T10:37:25Z</time>
      </trkpt>
      <trkpt lat="46.29516" lon="6.78955">
        <ele>1033.55</ele>
        <time>2015-07-27T10:38:30Z</time>
      </trkpt>
      <trkpt lat="46.29519" lon="6.78966">
        <ele>1034.04</ele>
        <time>2015-07-27T10:39:35Z</time>
      </trkpt>
      <trkpt lat="46.29525" lon="6.78897">
        <ele>1032.59</ele>
        <time>2015-07-27T10:40:40Z</time>
      </trkpt>
      <trkpt lat="46.29548" lon="6.78797">
        <ele>1033.55</ele>
        <time>2015-07-27T10:41:45Z</time>
      </trkpt>
      <trkpt lat="46.29566" lon="6.78692">
        <ele>1029.71</ele>
        <time>2015-07-27T10:42:50Z</time>
      </trkpt>
      <trkpt lat="46.29558" lon="6.78585">
        <ele>1025.38</ele>
        <time>2015-07-27T10:43:55Z</time>
      </trkpt>
      <trkpt lat="46.29524" lon="6.7852">
        <ele>1019.13</ele>
        <time>2015-07-27T10:45:00Z</time>
      </trkpt>
      <trkpt lat="46.29552" lon="6.78503">
        <ele>1021.54</ele>
        <time>2015-07-27T10:46:05Z</time>
      </trkpt>
      <trkpt lat="46.29556" lon="6.78515">
        <ele>1022.02</ele>
        <time>2015-07-27T10:47:10Z</time>
      </trkpt>
      <trkpt lat="46.29561" lon="6.78612">
        <ele>1025.86</ele>
        <time>2015-07-27T10:48:15Z</time>
      </trkpt>
      <trkpt lat="46.29522" lon="6.7865">
        <ele>1024.9</ele>
        <time>2015-07-27T10:49:20Z</time>
      </trkpt>
      <trkpt lat="46.29461" lon="6.78623">
        <ele>1019.62</ele>
        <time>2015-07-27T10:50:25Z</time>
      </trkpt>
      <trkpt lat="46.2939" lon="6.78589">
        <ele>1017.21</ele>
        <time>2015-07-27T10:51:30Z</time>
      </trkpt>
      <trkpt lat="46.2932" lon="6.78558">
        <ele>1012.89</ele>
        <time>2015-07-27T10:52:35Z</time>
      </trkpt>
      <trkpt lat="46.2926" lon="6.78499">
        <ele>1008.08</ele>
        <time>2015-07-27T10:53:40Z</time>
      </trkpt>
      <trkpt lat="46.29227" lon="6.78402">
        <ele>1003.75</ele>
        <time>2015-07-27T10:54:45Z</time>
      </trkpt>
      <trkpt lat="46.29268" lon="6.78333">
        <ele>1002.31</ele>
        <time>2015-07-27T10:55:50Z</time>
      </trkpt>
      <trkpt lat="46.29305" lon="6.78316">
        <ele>1002.31</ele>
        <time>2015-07-27T10:56:31Z</time>
      </trkpt>
    </trkseg>
  </trk>
</gpx>